TimeEET,TemperatureF,Dew PointF,Humidity,Sea Level PressureIn,VisibilityMPH,Wind Direction,Wind SpeedMPH,Gust SpeedMPH,PrecipitationIn,Events,Conditions,WindDirDegrees,DateUTC
12:00 AM,80.6,26.6,14,29.77,-9999.0,NW,13.8,-,N/A,,Clear,320,2013-04-26 22:00:00
1:00 AM,78.8,24.8,14,29.74,-9999.0,NW,13.8,-,N/A,,Clear,320,2013-04-26 23:00:00
2:00 AM,76,30,10,29.74,6,NNW,9.2,,,,,330,2013-04-27 00:00:00
2:00 AM,75.2,30.2,19,29.74,-9999.0,NNW,9.2,-,N/A,,Clear,330,2013-04-27 00:00:00
3:00 AM,75.2,32.0,21,29.74,-9999.0,NW,8.1,-,N/A,,Clear,320,2013-04-27 01:00:00
4:00 AM,73.4,33.8,23,29.74,-9999.0,NNW,6.9,-,N/A,,Clear,340,2013-04-27 02:00:00
5:00 AM,69.8,35.6,28,29.77,-9999.0,Calm,Calm,-,N/A,,Clear,0,2013-04-27 03:00:00
6:00 AM,71.6,35.6,27,29.80,-9999.0,Calm,Calm,-,N/A,,Clear,0,2013-04-27 04:00:00
7:00 AM,75.2,35.6,24,29.80,-9999.0,NW,10.4,-,N/A,,Clear,310,2013-04-27 05:00:00
8:00 AM,81,36,11,29.81,6,NNW,5.8,,,,,330,2013-04-27 06:00:00
8:00 AM,80.6,35.6,20,29.83,-9999.0,NNW,5.8,-,N/A,,Clear,330,2013-04-27 06:00:00
9:00 AM,84.2,35.6,18,29.83,-9999.0,North,5.8,-,N/A,,Clear,360,2013-04-27 07:00:00
9:03 AM,84.2,35.6,18,29.83,-9999.0,North,5.8,-,N/A,,Clear,360,2013-04-27 07:03:00
10:00 AM,87.8,35.6,16,29.83,-9999.0,North,4.6,-,N/A,,Clear,360,2013-04-27 08:00:00
11:00 AM,91.4,41.0,17,29.83,-9999.0,NW,5.8,-,N/A,,Clear,310,2013-04-27 09:00:00
12:00 PM,91.4,37.4,15,29.80,-9999.0,SSW,5.8,-,N/A,,Clear,210,2013-04-27 10:00:00
1:00 PM,96.8,41.0,15,29.80,-9999.0,West,9.2,-,N/A,,Clear,270,2013-04-27 11:00:00
2:00 PM,99,31,4,29.72,6,NW,4.6,,,,,320,2013-04-27 12:00:00
2:00 PM,98.6,30.2,9,29.77,-9999.0,NW,4.6,-,N/A,,Clear,320,2013-04-27 12:00:00
3:00 PM,98.6,28.4,8,29.74,-9999.0,WNW,8.1,-,N/A,,Clear,290,2013-04-27 13:00:00
4:00 PM,98.6,28.4,8,29.74,-9999.0,West,12.7,-,N/A,,Clear,270,2013-04-27 14:00:00
5:00 PM,96.8,26.6,8,29.74,-9999.0,WNW,12.7,-,N/A,,Clear,290,2013-04-27 15:00:00
6:00 PM,95.0,30.2,10,29.74,-9999.0,WNW,9.2,-,N/A,,Clear,300,2013-04-27 16:00:00
7:00 PM,91.4,32.0,12,29.77,-9999.0,Calm,Calm,-,N/A,,Clear,0,2013-04-27 17:00:00
8:00 PM,89,34,7,29.74,6,Calm,Calm,,,,,,2013-04-27 18:00:00
8:00 PM,87.8,33.8,15,29.77,-9999.0,Calm,Calm,-,N/A,,Clear,0,2013-04-27 18:00:00
9:00 PM,86.0,33.8,15,29.80,-9999.0,NNW,9.2,-,N/A,,Clear,330,2013-04-27 19:00:00
10:00 PM,86.0,28.4,12,29.80,-9999.0,NNW,6.9,-,N/A,,Clear,340,2013-04-27 20:00:00
11:00 PM,80.6,23.0,12,29.80,-9999.0,NW,11.5,-,N/A,,Clear,310,2013-04-27 21:00:00